Time,TemperatureF,DewpointF,PressureIn,WindDirection,WindDirectionDegrees,WindSpeedMPH,WindSpeedGustMPH,Humidity,HourlyPrecipIn,Conditions,Clouds,dailyrainin,SoftwareType,DateUTC
2013-03-07 00:00:00,32.5,28.5,30.18,WNW,282,1.0,2.0,85,0.00,,,0.00,WeatherCatV1.10B1784,2013-03-07 05:00:00,
2013-03-07 00:05:00,32.5,28.5,30.18,WNW,284,0.0,2.0,85,0.00,,,0.00,WeatherCatV1.10B1784,2013-03-07 05:05:00,
2013-03-07 00:10:00,32.5,28.5,30.18,WNW,284,2.0,3.0,85,0.00,,,0.00,WeatherCatV1.10B1784,2013-03-07 05:10:00,
2013-03-07 00:15:00,32.5,28.5,30.18,WNW,284,2.0,2.0,85,0.00,,,0.00,WeatherCatV1.10B1784,2013-03-07 05:15:00,
2013-03-07 00:21:00,32.4,28.4,30.18,WNW,284,2.0,3.0,85,0.00,,,0.00,WeatherCatV1.10B1784,2013-03-07 05:21:00,
2013-03-07 00:26:00,32.5,28.5,30.18,WNW,284,2.0,3.0,85,0.00,,,0.00,WeatherCatV1.10B1784,2013-03-07 05:26:00,
2013-03-07 00:31:00,32.4,28.4,30.17,WNW,284,2.0,2.0,85,0.00,,,0.00,WeatherCatV1.10B1784,2013-03-07 05:31:00,
2013-03-07 00:36:00,32.4,28.4,30.18,WNW,284,1.0,3.0,85,0.00,,,0.00,WeatherCatV1.10B1784,2013-03-07 05:36:00,
2013-03-07 00:41:00,32.4,28.4,30.17,WNW,284,0.0,1.0,85,0.00,,,0.00,WeatherCatV1.10B1784,2013-03-07 05:41:00,
2013-03-07 00:46:00,32.4,28.4,30.17,WNW,284,1.0,1.0,85,0.00,,,0.00,WeatherCatV1.10B1784,2013-03-07 05:46:00,
2013-03-07 00:51:00,32.4,28.4,30.17,WNW,284,1.0,1.0,85,0.00,,,0.00,WeatherCatV1.10B1784,2013-03-07 05:51:00,
2013-03-07 00:56:00,32.4,28.4,30.17,WNW,284,0.0,0.0,85,0.00,,,0.00,WeatherCatV1.10B1784,2013-03-07 05:56:00,
2013-03-07 01:01:00,32.5,28.5,30.17,WNW,284,0.0,1.0,85,0.00,,,0.00,WeatherCatV1.10B1784,2013-03-07 06:01:00,
2013-03-07 01:06:00,32.5,28.5,30.17,WNW,284,0.0,0.0,85,0.00,,,0.00,WeatherCatV1.10B1784,2013-03-07 06:06:00,
2013-03-07 01:11:00,32.6,28.6,30.17,WNW,284,0.0,0.0,85,0.00,,,0.00,WeatherCatV1.10B1784,2013-03-07 06:11:00,
2013-03-07 01:16:00,32.6,28.6,30.17,WNW,284,0.0,0.0,85,0.00,,,0.00,WeatherCatV1.10B1784,2013-03-07 06:16:00,
2013-03-07 01:22:00,32.8,28.8,30.17,WNW,284,0.0,0.0,85,0.00,,,0.00,WeatherCatV1.10B1784,2013-03-07 06:22:00,
2013-03-07 01:27:00,33.0,29.0,30.17,WNW,284,0.0,0.0,85,0.00,,,0.00,WeatherCatV1.10B1784,2013-03-07 06:27:00,
2013-03-07 01:32:00,33.2,28.9,30.17,WNW,284,0.0,0.0,84,0.00,,,0.00,WeatherCatV1.10B1784,2013-03-07 06:32:00,
2013-03-07 01:37:00,33.5,29.2,30.17,WNW,284,0.0,0.0,84,0.00,,,0.00,WeatherCatV1.10B1784,2013-03-07 06:37:00,
2013-03-07 01:42:00,33.5,28.9,30.17,WNW,284,0.0,0.0,83,0.00,,,0.00,WeatherCatV1.10B1784,2013-03-07 06:42:00,
2013-03-07 01:47:00,33.4,28.8,30.17,WNW,284,0.0,0.0,83,0.00,,,0.00,WeatherCatV1.10B1784,2013-03-07 06:47:00,
2013-03-07 01:52:00,33.3,29.0,30.18,WNW,284,0.0,0.0,84,0.00,,,0.00,WeatherCatV1.10B1784,2013-03-07 06:52:00,
2013-03-07 01:57:00,33.2,28.9,30.18,WNW,284,0.0,0.0,84,0.00,,,0.00,WeatherCatV1.10B1784,2013-03-07 06:57:00,
2013-03-07 02:02:00,33.0,29.0,30.18,WNW,284,0.0,0.0,85,0.00,,,0.00,WeatherCatV1.10B1784,2013-03-07 07:02:00,
2013-03-07 02:07:00,32.9,28.9,30.18,WNW,284,0.0,0.0,85,0.00,,,0.00,WeatherCatV1.10B1784,2013-03-07 07:07:00,
2013-03-07 02:12:00,32.9,28.9,30.18,WNW,284,0.0,0.0,85,0.00,,,0.00,WeatherCatV1.10B1784,2013-03-07 07:12:00,
2013-03-07 02:17:00,32.9,28.9,30.18,WNW,284,0.0,0.0,85,0.00,,,0.00,WeatherCatV1.10B1784,2013-03-07 07:17:00,
2013-03-07 02:22:00,32.9,28.9,30.18,WNW,284,0.0,0.0,85,0.00,,,0.00,WeatherCatV1.10B1784,2013-03-07 07:22:00,
2013-03-07 02:27:00,33.0,29.0,30.18,WNW,284,0.0,0.0,85,0.00,,,0.00,WeatherCatV1.10B1784,2013-03-07 07:27:00,
2013-03-07 02:30:00,33.0,29.0,30.18,WNW,284,0.0,0.0,85,0.00,,,0.00,WeatherCatV1.10B1784,2013-03-07 07:30:00,
2013-03-07 02:35:00,33.0,29.0,30.18,WNW,284,0.0,0.0,85,0.00,,,0.00,WeatherCatV1.10B1784,2013-03-07 07:35:00,
2013-03-07 02:40:00,33.1,29.1,30.18,WNW,284,0.0,0.0,85,0.00,,,0.00,WeatherCatV1.10B1784,2013-03-07 07:40:00,
2013-03-07 02:45:00,33.0,29.0,30.18,WNW,284,0.0,0.0,85,0.00,,,0.00,WeatherCatV1.10B1784,2013-03-07 07:45:00,
2013-03-07 02:50:00,32.9,28.9,30.18,WNW,284,0.0,2.0,85,0.00,,,0.00,WeatherCatV1.10B1784,2013-03-07 07:50:00,
2013-03-07 02:55:00,32.7,29.0,30.18,WNW,284,1.0,1.0,86,0.00,,,0.00,WeatherCatV1.10B1784,2013-03-07 07:55:00,
2013-03-07 03:00:00,32.5,28.8,30.18,WNW,284,2.0,2.0,86,0.00,,,0.00,WeatherCatV1.10B1784,2013-03-07 08:00:00,
2013-03-07 03:05:00,32.3,28.6,30.18,WNW,284,1.0,1.0,86,0.00,,,0.00,WeatherCatV1.10B1784,2013-03-07 08:05:00,
2013-03-07 03:10:00,32.2,28.5,30.18,WNW,284,0.0,2.0,86,0.00,,,0.00,WeatherCatV1.10B1784,2013-03-07 08:10:00,
2013-03-07 03:15:00,32.1,28.4,30.18,WNW,284,0.0,3.0,86,0.00,,,0.00,WeatherCatV1.10B1784,2013-03-07 08:15:00,
2013-03-07 03:20:00,32.0,28.3,30.17,WNW,284,2.0,3.0,86,0.00,,,0.00,WeatherCatV1.10B1784,2013-03-07 08:20:00,
2013-03-07 03:25:00,32.0,28.6,30.18,WNW,284,1.0,1.0,87,0.00,,,0.00,WeatherCatV1.10B1784,2013-03-07 08:25:00,
2013-03-07 03:30:00,31.9,28.5,30.18,WNW,284,0.0,1.0,87,0.00,,,0.00,WeatherCatV1.10B1784,2013-03-07 08:30:00,
2013-03-07 03:35:00,32.0,28.6,30.18,WNW,284,3.0,3.0,87,0.00,,,0.00,WeatherCatV1.10B1784,2013-03-07 08:35:00,
2013-03-07 03:40:00,32.0,28.6,30.18,WNW,284,2.0,2.0,87,0.00,,,0.00,WeatherCatV1.10B1784,2013-03-07 08:40:00,
2013-03-07 03:45:00,31.9,28.5,30.18,WNW,285,2.0,3.0,87,0.00,,,0.00,WeatherCatV1.10B1784,2013-03-07 08:45:00,
2013-03-07 03:50:00,31.9,28.5,30.18,WNW,286,1.0,3.0,87,0.00,,,0.00,WeatherCatV1.10B1784,2013-03-07 08:50:00,
2013-03-07 03:55:00,31.8,28.4,30.18,WNW,287,1.0,2.0,87,0.00,,,0.00,WeatherCatV1.10B1784,2013-03-07 08:55:00,
2013-03-07 04:00:00,31.7,28.3,30.18,WNW,287,2.0,2.0,87,0.00,,,0.00,WeatherCatV1.10B1784,2013-03-07 09:00:00,
2013-03-07 04:05:00,31.7,28.3,30.19,WNW,287,0.0,0.0,87,0.00,,,0.00,WeatherCatV1.10B1784,2013-03-07 09:05:00,
2013-03-07 04:10:00,31.6,28.2,30.19,WNW,287,1.0,2.0,87,0.00,,,0.00,WeatherCatV1.10B1784,2013-03-07 09:10:00,
2013-03-07 04:15:00,31.6,28.2,30.19,WNW,287,0.0,0.0,87,0.00,,,0.00,WeatherCatV1.10B1784,2013-03-07 09:15:00,
2013-03-07 04:21:00,31.6,28.2,30.19,WNW,287,0.0,1.0,87,0.00,,,0.00,WeatherCatV1.10B1784,2013-03-07 09:21:00,
2013-03-07 04:26:00,31.6,28.2,30.19,WNW,287,1.0,1.0,87,0.00,,,0.00,WeatherCatV1.10B1784,2013-03-07 09:26:00,
2013-03-07 04:31:00,31.6,28.2,30.19,WNW,287,0.0,1.0,87,0.00,,,0.00,WeatherCatV1.10B1784,2013-03-07 09:31:00,
2013-03-07 04:36:00,31.6,28.2,30.19,WNW,287,0.0,1.0,87,0.00,,,0.00,WeatherCatV1.10B1784,2013-03-07 09:36:00,
2013-03-07 04:41:00,31.6,28.2,30.20,WNW,287,1.0,1.0,87,0.00,,,0.00,WeatherCatV1.10B1784,2013-03-07 09:41:00,
2013-03-07 04:46:00,31.5,28.4,30.20,WNW,287,1.0,2.0,88,0.00,,,0.00,WeatherCatV1.10B1784,2013-03-07 09:46:00,
2013-03-07 04:51:00,31.4,28.3,30.20,WNW,287,1.0,1.0,88,0.00,,,0.00,WeatherCatV1.10B1784,2013-03-07 09:51:00,
2013-03-07 04:56:00,31.4,28.3,30.20,WNW,287,0.0,0.0,88,0.00,,,0.00,WeatherCatV1.10B1784,2013-03-07 09:56:00,
2013-03-07 05:01:00,31.4,28.3,30.20,WNW,287,0.0,0.0,88,0.00,,,0.00,WeatherCatV1.10B1784,2013-03-07 10:01:00,
2013-03-07 05:06:00,31.5,28.4,30.20,WNW,287,0.0,0.0,88,0.00,,,0.00,WeatherCatV1.10B1784,2013-03-07 10:06:00,
2013-03-07 05:11:00,31.6,28.5,30.20,WNW,287,0.0,0.0,88,0.00,,,0.00,WeatherCatV1.10B1784,2013-03-07 10:11:00,
2013-03-07 05:16:00,31.7,28.3,30.20,WNW,287,0.0,0.0,87,0.00,,,0.00,WeatherCatV1.10B1784,2013-03-07 10:16:00,
2013-03-07 05:22:00,31.6,28.2,30.20,WNW,287,0.0,1.0,87,0.00,,,0.00,WeatherCatV1.10B1784,2013-03-07 10:22:00,
2013-03-07 05:27:00,31.6,28.5,30.21,WNW,287,0.0,1.0,88,0.00,,,0.00,WeatherCatV1.10B1784,2013-03-07 10:27:00,
2013-03-07 05:32:00,31.5,28.4,30.21,WNW,287,0.0,0.0,88,0.00,,,0.00,WeatherCatV1.10B1784,2013-03-07 10:32:00,
2013-03-07 05:37:00,31.5,28.4,30.21,WNW,289,1.0,2.0,88,0.00,,,0.00,WeatherCatV1.10B1784,2013-03-07 10:37:00,
2013-03-07 05:42:00,31.6,28.7,30.21,WNW,290,3.0,3.0,89,0.00,,,0.00,WeatherCatV1.10B1784,2013-03-07 10:42:00,
2013-03-07 05:47:00,31.7,28.8,30.21,WNW,292,3.0,4.0,89,0.00,,,0.00,WeatherCatV1.10B1784,2013-03-07 10:47:00,
2013-03-07 05:52:00,31.7,28.6,30.22,NW,304,3.0,4.0,88,0.00,,,0.00,WeatherCatV1.10B1784,2013-03-07 10:52:00,
2013-03-07 05:57:00,31.7,28.6,30.22,WNW,300,2.0,5.0,88,0.00,,,0.00,WeatherCatV1.10B1784,2013-03-07 10:57:00,
2013-03-07 06:02:00,31.6,28.5,30.22,NW,311,4.0,5.0,88,0.00,,,0.00,WeatherCatV1.10B1784,2013-03-07 11:02:00,
2013-03-07 06:07:00,31.6,28.5,30.22,WNW,302,3.0,6.0,88,0.00,,,0.00,WeatherCatV1.10B1784,2013-03-07 11:07:00,
2013-03-07 06:12:00,31.5,28.4,30.22,NW,315,2.0,5.0,88,0.00,,,0.00,WeatherCatV1.10B1784,2013-03-07 11:12:00,
2013-03-07 06:17:00,31.4,28.5,30.22,NW,313,3.0,7.0,89,0.00,,,0.00,WeatherCatV1.10B1784,2013-03-07 11:17:00,
2013-03-07 06:22:00,31.4,28.5,30.22,NW,315,3.0,4.0,89,0.00,,,0.00,WeatherCatV1.10B1784,2013-03-07 11:22:00,
2013-03-07 06:27:00,31.2,28.3,30.22,NW,311,2.0,4.0,89,0.00,,,0.00,WeatherCatV1.10B1784,2013-03-07 11:27:00,
2013-03-07 06:32:00,31.2,28.3,30.22,NW,309,2.0,5.0,89,0.00,,,0.00,WeatherCatV1.10B1784,2013-03-07 11:32:00,
2013-03-07 06:37:00,31.2,28.3,30.22,WNW,290,4.0,5.0,89,0.00,,,0.00,WeatherCatV1.10B1784,2013-03-07 11:37:00,
2013-03-07 06:42:00,31.2,28.3,30.22,WNW,303,3.0,6.0,89,0.00,,,0.00,WeatherCatV1.10B1784,2013-03-07 11:42:00,
2013-03-07 06:47:00,31.1,28.2,30.23,NW,311,4.0,6.0,89,0.00,,,0.00,WeatherCatV1.10B1784,2013-03-07 11:47:00,
2013-03-07 06:52:00,31.2,28.3,30.23,WNW,289,4.0,7.0,89,0.00,,,0.00,WeatherCatV1.10B1784,2013-03-07 11:52:00,
2013-03-07 06:57:00,31.2,28.3,30.23,WNW,296,4.0,5.0,89,0.00,,,0.00,WeatherCatV1.10B1784,2013-03-07 11:57:00,
2013-03-07 07:02:00,31.3,28.7,30.23,NNW,329,2.0,4.0,90,0.00,,,0.00,WeatherCatV1.10B1784,2013-03-07 12:02:00,
2013-03-07 07:07:00,31.4,28.8,30.23,NNW,345,1.0,5.0,90,0.00,,,0.00,WeatherCatV1.10B1784,2013-03-07 12:07:00,
2013-03-07 07:12:00,31.4,28.8,30.23,NNW,333,3.0,4.0,90,0.00,,,0.00,WeatherCatV1.10B1784,2013-03-07 12:12:00,
2013-03-07 07:17:00,31.5,28.9,30.23,NNW,348,3.0,3.0,90,0.00,,,0.00,WeatherCatV1.10B1784,2013-03-07 12:17:00,
2013-03-07 07:22:00,31.6,28.7,30.23,NW,325,3.0,7.0,89,0.00,,,0.00,WeatherCatV1.10B1784,2013-03-07 12:22:00,
2013-03-07 07:27:00,31.7,28.8,30.23,NW,320,5.0,5.0,89,0.00,,,0.00,WeatherCatV1.10B1784,2013-03-07 12:27:00,
2013-03-07 07:32:00,31.7,28.8,30.23,NW,313,3.0,6.0,89,0.00,,,0.00,WeatherCatV1.10B1784,2013-03-07 12:32:00,
2013-03-07 07:37:00,31.8,28.9,30.24,NW,319,3.0,4.0,89,0.00,,,0.00,WeatherCatV1.10B1784,2013-03-07 12:37:00,
2013-03-07 07:42:00,31.9,29.3,30.24,NNW,331,3.0,4.0,90,0.00,,,0.00,WeatherCatV1.10B1784,2013-03-07 12:42:00,
2013-03-07 07:47:00,31.9,29.3,30.24,NW,317,2.0,4.0,90,0.00,,,0.00,WeatherCatV1.10B1784,2013-03-07 12:47:00,
2013-03-07 07:52:00,32.0,29.1,30.24,NW,319,3.0,6.0,89,0.00,,,0.00,WeatherCatV1.10B1784,2013-03-07 12:52:00,
2013-03-07 07:57:00,32.1,29.2,30.25,NNW,343,2.0,5.0,89,0.00,,,0.00,WeatherCatV1.10B1784,2013-03-07 12:57:00,
2013-03-07 08:02:00,32.3,29.4,30.25,NNW,343,5.0,5.0,89,0.00,,,0.00,WeatherCatV1.10B1784,2013-03-07 13:02:00,
2013-03-07 08:07:00,32.3,29.4,30.25,NNW,332,4.0,5.0,89,0.00,,,0.00,WeatherCatV1.10B1784,2013-03-07 13:07:00,
2013-03-07 08:12:00,32.4,29.5,30.25,NNW,338,4.0,5.0,89,0.00,,,0.00,WeatherCatV1.10B1784,2013-03-07 13:12:00,
2013-03-07 08:17:00,32.5,29.6,30.26,NNW,347,5.0,7.0,89,0.00,,,0.00,WeatherCatV1.10B1784,2013-03-07 13:17:00,
2013-03-07 08:22:00,32.6,29.7,30.26,NNW,333,5.0,7.0,89,0.00,,,0.00,WeatherCatV1.10B1784,2013-03-07 13:22:00,
2013-03-07 08:27:00,32.6,29.7,30.26,NW,311,4.0,5.0,89,0.00,,,0.00,WeatherCatV1.10B1784,2013-03-07 13:27:00,
2013-03-07 08:32:00,32.6,29.7,30.27,North,0,5.0,7.0,89,0.00,,,0.00,WeatherCatV1.10B1784,2013-03-07 13:32:00,
2013-03-07 08:37:00,32.6,29.7,30.27,NNW,330,4.0,6.0,89,0.00,,,0.00,WeatherCatV1.10B1784,2013-03-07 13:37:00,
2013-03-07 08:42:00,32.6,29.7,30.27,NNW,329,5.0,7.0,89,0.00,,,0.00,WeatherCatV1.10B1784,2013-03-07 13:42:00,
2013-03-07 08:47:00,32.6,29.7,30.27,NNW,334,6.0,6.0,89,0.00,,,0.00,WeatherCatV1.10B1784,2013-03-07 13:47:00,
2013-03-07 08:52:00,32.6,29.7,30.27,NW,317,2.0,6.0,89,0.00,,,0.00,WeatherCatV1.10B1784,2013-03-07 13:52:00,
2013-03-07 08:57:00,32.7,29.8,30.27,North,355,4.0,5.0,89,0.00,,,0.00,WeatherCatV1.10B1784,2013-03-07 13:57:00,
2013-03-07 09:02:00,32.7,29.8,30.27,NW,319,2.0,7.0,89,0.00,,,0.00,WeatherCatV1.10B1784,2013-03-07 14:02:00,
2013-03-07 09:07:00,32.8,29.9,30.27,NNW,346,5.0,5.0,89,0.00,,,0.00,WeatherCatV1.10B1784,2013-03-07 14:07:00,
2013-03-07 09:12:00,32.8,29.9,30.27,NNW,331,4.0,7.0,89,0.00,,,0.00,WeatherCatV1.10B1784,2013-03-07 14:12:00,
2013-03-07 09:17:00,32.8,29.9,30.28,North,355,4.0,6.0,89,0.00,,,0.00,WeatherCatV1.10B1784,2013-03-07 14:17:00,
2013-03-07 09:22:00,32.9,29.7,30.28,NNW,333,5.0,6.0,88,0.00,,,0.00,WeatherCatV1.10B1784,2013-03-07 14:22:00,
2013-03-07 09:27:00,32.9,29.7,30.28,NNW,329,3.0,4.0,88,0.00,,,0.00,WeatherCatV1.10B1784,2013-03-07 14:27:00,
2013-03-07 09:32:00,33.0,29.8,30.28,NW,313,3.0,7.0,88,0.00,,,0.00,WeatherCatV1.10B1784,2013-03-07 14:32:00,
2013-03-07 09:37:00,33.0,29.8,30.28,NNW,336,3.0,8.0,88,0.00,,,0.00,WeatherCatV1.10B1784,2013-03-07 14:37:00,
2013-03-07 09:42:00,33.0,29.8,30.28,NW,325,5.0,7.0,88,0.00,,,0.00,WeatherCatV1.10B1784,2013-03-07 14:42:00,
2013-03-07 09:47:00,33.0,29.8,30.28,North,5,3.0,7.0,88,0.00,,,0.00,WeatherCatV1.10B1784,2013-03-07 14:47:00,
2013-03-07 09:52:00,33.2,30.0,30.28,North,355,7.0,8.0,88,0.00,,,0.00,WeatherCatV1.10B1784,2013-03-07 14:52:00,
2013-03-07 09:57:00,33.2,29.8,30.28,NW,324,5.0,7.0,87,0.00,,,0.00,WeatherCatV1.10B1784,2013-03-07 14:57:00,
2013-03-07 10:02:00,33.2,29.8,30.28,NNW,336,5.0,9.0,87,0.00,,,0.00,WeatherCatV1.10B1784,2013-03-07 15:02:00,
2013-03-07 10:07:00,33.1,29.7,30.28,NNW,344,4.0,7.0,87,0.00,,,0.00,WeatherCatV1.10B1784,2013-03-07 15:07:00,
2013-03-07 10:12:00,33.2,29.8,30.28,NNW,331,3.0,7.0,87,0.00,,,0.00,WeatherCatV1.10B1784,2013-03-07 15:12:00,
2013-03-07 10:17:00,33.4,29.7,30.28,North,355,4.0,6.0,86,0.00,,,0.00,WeatherCatV1.10B1784,2013-03-07 15:17:00,
2013-03-07 10:22:00,33.6,29.9,30.28,North,9,3.0,5.0,86,0.00,,,0.00,WeatherCatV1.10B1784,2013-03-07 15:22:00,
2013-03-07 10:27:00,33.6,29.3,30.28,NNW,343,6.0,11.0,84,0.00,,,0.00,WeatherCatV1.10B1784,2013-03-07 15:27:00,
2013-03-07 10:32:00,33.5,29.2,30.28,North,355,5.0,7.0,84,0.00,,,0.00,WeatherCatV1.10B1784,2013-03-07 15:32:00,
2013-03-07 10:37:00,33.4,29.1,30.28,NNW,347,6.0,10.0,84,0.00,,,0.00,WeatherCatV1.10B1784,2013-03-07 15:37:00,
2013-03-07 10:42:00,33.4,29.1,30.29,WNW,298,4.0,8.0,84,0.00,,,0.00,WeatherCatV1.10B1784,2013-03-07 15:42:00,
2013-03-07 10:47:00,33.4,28.8,30.29,WNW,303,6.0,12.0,83,0.00,,,0.00,WeatherCatV1.10B1784,2013-03-07 15:47:00,
2013-03-07 10:52:00,33.5,28.6,30.29,NW,304,6.0,9.0,82,0.00,,,0.00,WeatherCatV1.10B1784,2013-03-07 15:52:00,
2013-03-07 10:57:00,33.7,28.8,30.29,NNW,339,3.0,9.0,82,0.00,,,0.00,WeatherCatV1.10B1784,2013-03-07 15:57:00,
2013-03-07 11:02:00,33.9,28.4,30.29,WNW,290,7.0,10.0,80,0.00,,,0.00,WeatherCatV1.10B1784,2013-03-07 16:02:00,
2013-03-07 11:07:00,33.9,28.1,30.29,NW,308,7.0,12.0,79,0.00,,,0.00,WeatherCatV1.10B1784,2013-03-07 16:07:00,
2013-03-07 11:12:00,34.2,28.4,30.29,NW,310,7.0,9.0,79,0.00,,,0.00,WeatherCatV1.10B1784,2013-03-07 16:12:00,
2013-03-07 11:17:00,34.4,28.6,30.28,NNW,348,4.0,6.0,79,0.00,,,0.00,WeatherCatV1.10B1784,2013-03-07 16:17:00,
2013-03-07 11:22:00,34.5,28.4,30.29,NNW,336,5.0,9.0,78,0.00,,,0.00,WeatherCatV1.10B1784,2013-03-07 16:22:00,
2013-03-07 11:27:00,34.3,28.2,30.29,NNW,348,2.0,6.0,78,0.00,,,0.00,WeatherCatV1.10B1784,2013-03-07 16:27:00,
2013-03-07 11:32:00,34.5,28.4,30.29,North,355,6.0,10.0,78,0.00,,,0.00,WeatherCatV1.10B1784,2013-03-07 16:32:00,
2013-03-07 11:37:00,34.5,28.4,30.29,NNW,338,7.0,8.0,78,0.00,,,0.00,WeatherCatV1.10B1784,2013-03-07 16:37:00,
2013-03-07 11:42:00,34.7,28.2,30.29,NNW,330,8.0,9.0,77,0.00,,,0.00,WeatherCatV1.10B1784,2013-03-07 16:42:00,
2013-03-07 11:47:00,34.5,28.0,30.29,North,9,5.0,9.0,77,0.00,,,0.00,WeatherCatV1.10B1784,2013-03-07 16:47:00,
2013-03-07 11:52:00,34.6,28.1,30.29,NW,305,3.0,11.0,77,0.00,,,0.00,WeatherCatV1.10B1784,2013-03-07 16:52:00,
2013-03-07 11:57:00,34.7,27.9,30.29,NW,326,5.0,5.0,76,0.00,,,0.00,WeatherCatV1.10B1784,2013-03-07 16:57:00,
2013-03-07 12:02:00,34.8,28.0,30.29,North,0,11.0,11.0,76,0.00,,,0.00,WeatherCatV1.10B1784,2013-03-07 17:02:00,
2013-03-07 12:07:00,34.6,27.5,30.30,NW,310,5.0,6.0,75,0.00,,,0.00,WeatherCatV1.10B1784,2013-03-07 17:07:00,
2013-03-07 12:12:00,34.8,27.7,30.29,WNW,293,5.0,7.0,75,0.00,,,0.00,WeatherCatV1.10B1784,2013-03-07 17:12:00,
2013-03-07 12:17:00,35.2,27.8,30.29,NNE,31,8.0,8.0,74,0.00,,,0.00,WeatherCatV1.10B1784,2013-03-07 17:17:00,
2013-03-07 12:22:00,35.3,27.9,30.29,North,349,4.0,7.0,74,0.00,,,0.00,WeatherCatV1.10B1784,2013-03-07 17:22:00,
2013-03-07 12:27:00,35.3,27.2,30.29,NNW,344,7.0,9.0,72,0.00,,,0.00,WeatherCatV1.10B1784,2013-03-07 17:27:00,
2013-03-07 12:32:00,35.5,28.0,30.29,North,0,7.0,9.0,74,0.00,,,0.00,WeatherCatV1.10B1784,2013-03-07 17:32:00,
2013-03-07 12:37:00,35.2,27.1,30.29,North,5,6.0,8.0,72,0.00,,,0.00,WeatherCatV1.10B1784,2013-03-07 17:37:00,
2013-03-07 12:42:00,35.0,26.9,30.29,NW,319,6.0,8.0,72,0.00,,,0.00,WeatherCatV1.10B1784,2013-03-07 17:42:00,
2013-03-07 12:47:00,35.9,27.8,30.29,NNW,343,4.0,9.0,72,0.00,,,0.00,WeatherCatV1.10B1784,2013-03-07 17:47:00,
2013-03-07 12:52:00,36.6,27.8,30.29,NW,323,10.0,10.0,70,0.00,,,0.00,WeatherCatV1.10B1784,2013-03-07 17:52:00,
2013-03-07 12:57:00,35.8,27.0,30.29,North,5,6.0,11.0,70,0.00,,,0.00,WeatherCatV1.10B1784,2013-03-07 17:57:00,
2013-03-07 13:02:00,35.6,26.8,30.29,NW,314,6.0,10.0,70,0.00,,,0.00,WeatherCatV1.10B1784,2013-03-07 18:02:00,
2013-03-07 13:07:00,35.5,27.0,30.29,NNW,336,3.0,6.0,71,0.00,,,0.00,WeatherCatV1.10B1784,2013-03-07 18:07:00,
2013-03-07 13:12:00,35.4,26.6,30.29,North,5,4.0,7.0,70,0.00,,,0.00,WeatherCatV1.10B1784,2013-03-07 18:12:00,
2013-03-07 13:17:00,35.6,26.8,30.29,NNW,338,6.0,9.0,70,0.00,,,0.00,WeatherCatV1.10B1784,2013-03-07 18:17:00,
2013-03-07 13:22:00,35.5,26.7,30.29,NNW,338,6.0,8.0,70,0.00,,,0.00,WeatherCatV1.10B1784,2013-03-07 18:22:00,
2013-03-07 13:27:00,35.4,26.3,30.28,NNW,336,4.0,11.0,69,0.00,,,0.00,WeatherCatV1.10B1784,2013-03-07 18:27:00,
2013-03-07 13:32:00,35.6,26.5,30.28,North,10,7.0,13.0,69,0.00,,,0.00,WeatherCatV1.10B1784,2013-03-07 18:32:00,
2013-03-07 13:37:00,35.9,26.0,30.28,North,5,8.0,9.0,67,0.00,,,0.00,WeatherCatV1.10B1784,2013-03-07 18:37:00,
2013-03-07 13:42:00,35.8,27.0,30.28,NW,320,7.0,7.0,70,0.00,,,0.00,WeatherCatV1.10B1784,2013-03-07 18:42:00,
2013-03-07 13:47:00,35.7,25.5,30.28,NNE,21,5.0,8.0,66,0.00,,,0.00,WeatherCatV1.10B1784,2013-03-07 18:47:00,
2013-03-07 13:52:00,35.7,25.8,30.28,North,5,4.0,7.0,67,0.00,,,0.00,WeatherCatV1.10B1784,2013-03-07 18:52:00,
2013-03-07 13:57:00,35.8,26.3,30.28,NW,304,5.0,6.0,68,0.00,,,0.00,WeatherCatV1.10B1784,2013-03-07 18:57:00,
2013-03-07 14:02:00,35.7,25.8,30.28,NNW,342,5.0,7.0,67,0.00,,,0.00,WeatherCatV1.10B1784,2013-03-07 19:02:00,
2013-03-07 14:07:00,35.8,25.6,30.28,NW,321,3.0,7.0,66,0.00,,,0.00,WeatherCatV1.10B1784,2013-03-07 19:07:00,
2013-03-07 14:12:00,35.8,25.6,30.28,NNW,332,3.0,6.0,66,0.00,,,0.00,WeatherCatV1.10B1784,2013-03-07 19:12:00,
2013-03-07 14:17:00,35.9,25.7,30.28,WNW,290,3.0,6.0,66,0.00,,,0.00,WeatherCatV1.10B1784,2013-03-07 19:17:00,
2013-03-07 14:22:00,35.9,25.3,30.28,WNW,298,8.0,9.0,65,0.00,,,0.00,WeatherCatV1.10B1784,2013-03-07 19:22:00,
2013-03-07 14:27:00,36.0,25.4,30.28,North,5,3.0,5.0,65,0.00,,,0.00,WeatherCatV1.10B1784,2013-03-07 19:27:00,
2013-03-07 14:32:00,36.0,25.4,30.28,NNW,333,3.0,4.0,65,0.00,,,0.00,WeatherCatV1.10B1784,2013-03-07 19:32:00,
2013-03-07 14:37:00,36.0,25.0,30.28,NW,309,5.0,7.0,64,0.00,,,0.00,WeatherCatV1.10B1784,2013-03-07 19:37:00,
2013-03-07 14:42:00,35.9,25.3,30.29,NNW,339,4.0,8.0,65,0.00,,,0.00,WeatherCatV1.10B1784,2013-03-07 19:42:00,
2013-03-07 14:47:00,35.8,25.6,30.29,NNW,338,2.0,5.0,66,0.00,,,0.00,WeatherCatV1.10B1784,2013-03-07 19:47:00,
2013-03-07 14:52:00,36.0,25.4,30.28,NNW,340,4.0,5.0,65,0.00,,,0.00,WeatherCatV1.10B1784,2013-03-07 19:52:00,
2013-03-07 14:57:00,36.1,25.1,30.29,NNW,335,6.0,7.0,64,0.00,,,0.00,WeatherCatV1.10B1784,2013-03-07 19:57:00,
2013-03-07 15:02:00,36.1,25.1,30.29,NNW,345,3.0,6.0,64,0.00,,,0.00,WeatherCatV1.10B1784,2013-03-07 20:02:00,
2013-03-07 15:07:00,36.0,25.0,30.29,North,351,5.0,6.0,64,0.00,,,0.00,WeatherCatV1.10B1784,2013-03-07 20:07:00,
2013-03-07 15:12:00,36.1,25.5,30.29,NNW,329,4.0,7.0,65,0.00,,,0.00,WeatherCatV1.10B1784,2013-03-07 20:12:00,
2013-03-07 15:17:00,36.0,24.6,30.29,North,0,5.0,7.0,63,0.00,,,0.00,WeatherCatV1.10B1784,2013-03-07 20:17:00,
2013-03-07 15:22:00,35.7,24.4,30.29,NNW,338,4.0,7.0,63,0.00,,,0.00,WeatherCatV1.10B1784,2013-03-07 20:22:00,
2013-03-07 15:27:00,35.7,24.7,30.29,NW,310,5.0,5.0,64,0.00,,,0.00,WeatherCatV1.10B1784,2013-03-07 20:27:00,
2013-03-07 15:32:00,35.7,24.7,30.29,NNW,338,3.0,6.0,64,0.00,,,0.00,WeatherCatV1.10B1784,2013-03-07 20:32:00,
2013-03-07 15:37:00,36.0,25.0,30.29,North,355,6.0,8.0,64,0.00,,,0.00,WeatherCatV1.10B1784,2013-03-07 20:37:00,
2013-03-07 15:42:00,35.9,24.5,30.30,NNW,331,5.0,8.0,63,0.00,,,0.00,WeatherCatV1.10B1784,2013-03-07 20:42:00,
2013-03-07 15:47:00,35.8,24.1,30.30,NNW,340,5.0,5.0,62,0.00,,,0.00,WeatherCatV1.10B1784,2013-03-07 20:47:00,
2013-03-07 15:52:00,35.8,24.1,30.29,NW,326,4.0,7.0,62,0.00,,,0.00,WeatherCatV1.10B1784,2013-03-07 20:52:00,
2013-03-07 15:57:00,35.8,24.1,30.30,NNE,30,8.0,8.0,62,0.00,,,0.00,WeatherCatV1.10B1784,2013-03-07 20:57:00,
2013-03-07 16:02:00,35.7,25.1,30.30,NNW,332,4.0,6.0,65,0.00,,,0.00,WeatherCatV1.10B1784,2013-03-07 21:02:00,
2013-03-07 16:07:00,35.6,24.3,30.30,North,350,5.0,6.0,63,0.00,,,0.00,WeatherCatV1.10B1784,2013-03-07 21:07:00,
2013-03-07 16:12:00,35.5,23.8,30.30,NNW,347,6.0,7.0,62,0.00,,,0.00,WeatherCatV1.10B1784,2013-03-07 21:12:00,
2013-03-07 16:17:00,35.5,23.8,30.30,NNW,340,5.0,5.0,62,0.00,,,0.00,WeatherCatV1.10B1784,2013-03-07 21:17:00,
2013-03-07 16:22:00,35.7,23.6,30.30,NW,306,6.0,7.0,61,0.00,,,0.00,WeatherCatV1.10B1784,2013-03-07 21:22:00,
2013-03-07 16:27:00,35.8,23.3,30.30,NNW,336,5.0,9.0,60,0.00,,,0.00,WeatherCatV1.10B1784,2013-03-07 21:27:00,
2013-03-07 16:32:00,35.6,23.5,30.30,NNW,344,6.0,8.0,61,0.00,,,0.00,WeatherCatV1.10B1784,2013-03-07 21:32:00,
2013-03-07 16:37:00,35.6,23.9,30.30,NNW,348,3.0,6.0,62,0.00,,,0.00,WeatherCatV1.10B1784,2013-03-07 21:37:00,
2013-03-07 16:43:00,35.7,24.0,30.30,NNW,347,3.0,7.0,62,0.00,,,0.00,WeatherCatV1.10B1784,2013-03-07 21:43:00,
2013-03-07 16:48:00,35.5,23.4,30.30,NW,311,4.0,4.0,61,0.00,,,0.00,WeatherCatV1.10B1784,2013-03-07 21:48:00,
2013-03-07 16:53:00,35.4,23.7,30.30,NNW,343,4.0,6.0,62,0.00,,,0.00,WeatherCatV1.10B1784,2013-03-07 21:53:00,
2013-03-07 16:58:00,35.3,24.0,30.30,North,5,4.0,6.0,63,0.00,,,0.00,WeatherCatV1.10B1784,2013-03-07 21:58:00,
2013-03-07 17:03:00,35.1,23.4,30.30,NNE,32,5.0,7.0,62,0.00,,,0.00,WeatherCatV1.10B1784,2013-03-07 22:03:00,
2013-03-07 17:08:00,34.9,24.0,30.30,North,355,3.0,6.0,64,0.00,,,0.00,WeatherCatV1.10B1784,2013-03-07 22:08:00,
2013-03-07 17:13:00,34.7,23.0,30.30,NNE,26,5.0,7.0,62,0.00,,,0.00,WeatherCatV1.10B1784,2013-03-07 22:13:00,
2013-03-07 17:18:00,34.5,23.2,30.30,North,355,3.0,5.0,63,0.00,,,0.00,WeatherCatV1.10B1784,2013-03-07 22:18:00,
2013-03-07 17:23:00,34.4,23.9,30.30,NNE,16,3.0,4.0,65,0.00,,,0.00,WeatherCatV1.10B1784,2013-03-07 22:23:00,
2013-03-07 17:28:00,34.2,22.9,30.31,North,355,4.0,10.0,63,0.00,,,0.00,WeatherCatV1.10B1784,2013-03-07 22:28:00,
2013-03-07 17:33:00,34.1,23.2,30.31,North,355,3.0,7.0,64,0.00,,,0.00,WeatherCatV1.10B1784,2013-03-07 22:33:00,
2013-03-07 17:38:00,34.0,23.1,30.31,NNE,14,4.0,6.0,64,0.00,,,0.00,WeatherCatV1.10B1784,2013-03-07 22:38:00,
2013-03-07 17:43:00,33.9,23.4,30.31,NNE,28,4.0,8.0,65,0.00,,,0.00,WeatherCatV1.10B1784,2013-03-07 22:43:00,
2013-03-07 17:48:00,33.8,23.3,30.31,NNW,346,4.0,7.0,65,0.00,,,0.00,WeatherCatV1.10B1784,2013-03-07 22:48:00,
2013-03-07 17:53:00,33.8,22.9,30.31,NW,324,4.0,6.0,64,0.00,,,0.00,WeatherCatV1.10B1784,2013-03-07 22:53:00,
2013-03-07 17:58:00,33.6,22.7,30.32,NNE,15,5.0,7.0,64,0.00,,,0.00,WeatherCatV1.10B1784,2013-03-07 22:58:00,
2013-03-07 18:03:00,33.5,22.6,30.32,North,5,5.0,5.0,64,0.00,,,0.00,WeatherCatV1.10B1784,2013-03-07 23:03:00,
2013-03-07 18:08:00,33.5,22.6,30.32,NNW,344,4.0,5.0,64,0.00,,,0.00,WeatherCatV1.10B1784,2013-03-07 23:08:00,
2013-03-07 18:13:00,33.4,22.9,30.32,North,350,3.0,5.0,65,0.00,,,0.00,WeatherCatV1.10B1784,2013-03-07 23:13:00,
2013-03-07 18:18:00,33.3,22.5,30.33,North,0,2.0,7.0,64,0.00,,,0.00,WeatherCatV1.10B1784,2013-03-07 23:18:00,
2013-03-07 18:23:00,33.3,22.1,30.33,North,5,4.0,5.0,63,0.00,,,0.00,WeatherCatV1.10B1784,2013-03-07 23:23:00,
2013-03-07 18:28:00,33.2,22.0,30.33,North,350,4.0,5.0,63,0.00,,,0.00,WeatherCatV1.10B1784,2013-03-07 23:28:00,
2013-03-07 18:33:00,33.2,22.0,30.33,NNE,22,6.0,6.0,63,0.00,,,0.00,WeatherCatV1.10B1784,2013-03-07 23:33:00,
2013-03-07 18:38:00,33.2,21.6,30.33,North,5,3.0,7.0,62,0.00,,,0.00,WeatherCatV1.10B1784,2013-03-07 23:38:00,
2013-03-07 18:43:00,33.2,22.0,30.33,NNW,342,5.0,6.0,63,0.00,,,0.00,WeatherCatV1.10B1784,2013-03-07 23:43:00,
2013-03-07 18:48:00,33.2,22.0,30.33,NNW,348,3.0,4.0,63,0.00,,,0.00,WeatherCatV1.10B1784,2013-03-07 23:48:00,
2013-03-07 18:53:00,33.1,21.9,30.33,North,0,2.0,3.0,63,0.00,,,0.00,WeatherCatV1.10B1784,2013-03-07 23:53:00,
2013-03-07 18:58:00,33.0,22.5,30.33,NNE,19,4.0,4.0,65,0.00,,,0.00,WeatherCatV1.10B1784,2013-03-07 23:58:00,
2013-03-07 19:03:00,32.9,22.4,30.34,NNE,23,4.0,7.0,65,0.00,,,0.00,WeatherCatV1.10B1784,2013-03-08 00:03:00,
2013-03-07 19:08:00,32.8,22.7,30.34,North,9,3.0,3.0,66,0.00,,,0.00,WeatherCatV1.10B1784,2013-03-08 00:08:00,
2013-03-07 19:14:00,32.7,22.6,30.34,NNE,16,1.0,3.0,66,0.00,,,0.00,WeatherCatV1.10B1784,2013-03-08 00:14:00,
2013-03-07 19:19:00,32.6,22.5,30.35,North,0,2.0,4.0,66,0.00,,,0.00,WeatherCatV1.10B1784,2013-03-08 00:19:00,
2013-03-07 19:24:00,32.6,22.9,30.35,North,9,1.0,2.0,67,0.00,,,0.00,WeatherCatV1.10B1784,2013-03-08 00:24:00,
2013-03-07 19:29:00,32.5,22.8,30.35,North,9,1.0,1.0,67,0.00,,,0.00,WeatherCatV1.10B1784,2013-03-08 00:29:00,
2013-03-07 19:34:00,32.4,22.7,30.35,NNE,21,3.0,3.0,67,0.00,,,0.00,WeatherCatV1.10B1784,2013-03-08 00:34:00,
2013-03-07 19:39:00,32.4,22.3,30.35,NNE,17,2.0,3.0,66,0.00,,,0.00,WeatherCatV1.10B1784,2013-03-08 00:39:00,
2013-03-07 19:44:00,32.4,22.7,30.35,NNE,28,2.0,4.0,67,0.00,,,0.00,WeatherCatV1.10B1784,2013-03-08 00:44:00,
2013-03-07 19:49:00,32.4,22.3,30.35,NNE,33,1.0,3.0,66,0.00,,,0.00,WeatherCatV1.10B1784,2013-03-08 00:49:00,
2013-03-07 19:54:00,32.4,22.7,30.35,NNE,15,2.0,3.0,67,0.00,,,0.00,WeatherCatV1.10B1784,2013-03-08 00:54:00,
2013-03-07 19:59:00,32.3,22.6,30.35,NE,36,3.0,4.0,67,0.00,,,0.00,WeatherCatV1.10B1784,2013-03-08 00:59:00,
2013-03-07 20:04:00,32.2,22.8,30.35,NE,36,2.0,2.0,68,0.00,,,0.00,WeatherCatV1.10B1784,2013-03-08 01:04:00,
2013-03-07 20:09:00,32.1,23.1,30.35,ENE,62,3.0,3.0,69,0.00,,,0.00,WeatherCatV1.10B1784,2013-03-08 01:09:00,
2013-03-07 20:14:00,32.0,23.3,30.35,ENE,63,3.0,4.0,70,0.00,,,0.00,WeatherCatV1.10B1784,2013-03-08 01:14:00,
2013-03-07 20:19:00,31.9,23.2,30.35,ENE,71,2.0,2.0,70,0.00,,,0.00,WeatherCatV1.10B1784,2013-03-08 01:19:00,
2013-03-07 20:24:00,31.8,23.5,30.35,ENE,58,2.0,2.0,71,0.00,,,0.00,WeatherCatV1.10B1784,2013-03-08 01:24:00,
2013-03-07 20:29:00,31.7,23.7,30.35,NE,55,1.0,2.0,72,0.00,,,0.00,WeatherCatV1.10B1784,2013-03-08 01:29:00,
2013-03-07 20:34:00,31.6,24.0,30.35,NE,55,1.0,2.0,73,0.00,,,0.00,WeatherCatV1.10B1784,2013-03-08 01:34:00,
2013-03-07 20:39:00,31.6,23.6,30.35,ENE,66,0.0,2.0,72,0.00,,,0.00,WeatherCatV1.10B1784,2013-03-08 01:39:00,
2013-03-07 20:44:00,31.5,23.5,30.35,ENE,66,1.0,2.0,72,0.00,,,0.00,WeatherCatV1.10B1784,2013-03-08 01:44:00,
2013-03-07 20:49:00,31.4,23.4,30.35,ENE,66,1.0,2.0,72,0.00,,,0.00,WeatherCatV1.10B1784,2013-03-08 01:49:00,
2013-03-07 20:54:00,31.4,23.4,30.35,ENE,66,0.0,0.0,72,0.00,,,0.00,WeatherCatV1.10B1784,2013-03-08 01:54:00,
2013-03-07 20:59:00,31.3,23.3,30.36,ENE,66,0.0,0.0,72,0.00,,,0.00,WeatherCatV1.10B1784,2013-03-08 01:59:00,
2013-03-07 21:04:00,31.2,23.2,30.35,ENE,66,1.0,2.0,72,0.00,,,0.00,WeatherCatV1.10B1784,2013-03-08 02:04:00,
2013-03-07 21:09:00,31.2,23.6,30.35,ENE,66,0.0,0.0,73,0.00,,,0.00,WeatherCatV1.10B1784,2013-03-08 02:09:00,
2013-03-07 21:14:00,31.1,23.5,30.35,ENE,66,0.0,0.0,73,0.00,,,0.00,WeatherCatV1.10B1784,2013-03-08 02:14:00,
2013-03-07 21:19:00,31.0,23.4,30.35,ENE,66,1.0,1.0,73,0.00,,,0.00,WeatherCatV1.10B1784,2013-03-08 02:19:00,
2013-03-07 21:24:00,31.0,23.4,30.35,ENE,66,1.0,2.0,73,0.00,,,0.00,WeatherCatV1.10B1784,2013-03-08 02:24:00,
2013-03-07 21:29:00,30.9,23.6,30.35,ENE,66,0.0,2.0,74,0.00,,,0.00,WeatherCatV1.10B1784,2013-03-08 02:29:00,
2013-03-07 21:34:00,30.8,23.5,30.36,ENE,66,0.0,0.0,74,0.00,,,0.00,WeatherCatV1.10B1784,2013-03-08 02:34:00,
2013-03-07 21:39:00,30.8,23.5,30.36,ENE,66,0.0,0.0,74,0.00,,,0.00,WeatherCatV1.10B1784,2013-03-08 02:39:00,
2013-03-07 21:44:00,30.8,23.5,30.36,NE,49,2.0,3.0,74,0.00,,,0.00,WeatherCatV1.10B1784,2013-03-08 02:44:00,
2013-03-07 21:49:00,30.8,23.2,30.36,NE,48,1.0,2.0,73,0.00,,,0.00,WeatherCatV1.10B1784,2013-03-08 02:49:00,
2013-03-07 21:54:00,30.8,23.2,30.36,NE,48,1.0,1.0,73,0.00,,,0.00,WeatherCatV1.10B1784,2013-03-08 02:54:00,
2013-03-07 21:59:00,30.8,23.2,30.36,NE,48,1.0,3.0,73,0.00,,,0.00,WeatherCatV1.10B1784,2013-03-08 02:59:00,
2013-03-07 22:04:00,30.8,23.2,30.36,NE,48,1.0,2.0,73,0.00,,,0.00,WeatherCatV1.10B1784,2013-03-08 03:04:00,
2013-03-07 22:09:00,30.8,22.9,30.36,NE,48,0.0,1.0,72,0.00,,,0.00,WeatherCatV1.10B1784,2013-03-08 03:09:00,
2013-03-07 22:14:00,30.7,23.1,30.36,NE,48,1.0,1.0,73,0.00,,,0.00,WeatherCatV1.10B1784,2013-03-08 03:14:00,
2013-03-07 22:19:00,30.7,23.1,30.36,NE,48,1.0,3.0,73,0.00,,,0.00,WeatherCatV1.10B1784,2013-03-08 03:19:00,
2013-03-07 22:24:00,30.6,23.3,30.36,NE,48,1.0,1.0,74,0.00,,,0.00,WeatherCatV1.10B1784,2013-03-08 03:24:00,
2013-03-07 22:29:00,30.6,23.0,30.36,NE,48,1.0,2.0,73,0.00,,,0.00,WeatherCatV1.10B1784,2013-03-08 03:29:00,
2013-03-07 22:34:00,30.5,22.9,30.36,NE,48,1.0,1.0,73,0.00,,,0.00,WeatherCatV1.10B1784,2013-03-08 03:34:00,
2013-03-07 22:39:00,30.5,22.6,30.36,NE,48,1.0,2.0,72,0.00,,,0.00,WeatherCatV1.10B1784,2013-03-08 03:39:00,
2013-03-07 22:44:00,30.5,22.6,30.36,NE,48,0.0,2.0,72,0.00,,,0.00,WeatherCatV1.10B1784,2013-03-08 03:44:00,
2013-03-07 22:49:00,30.5,22.6,30.36,NE,48,1.0,1.0,72,0.00,,,0.00,WeatherCatV1.10B1784,2013-03-08 03:49:00,
2013-03-07 22:54:00,30.4,22.5,30.36,NE,48,2.0,2.0,72,0.00,,,0.00,WeatherCatV1.10B1784,2013-03-08 03:54:00,
2013-03-07 22:59:00,30.3,22.0,30.36,NE,47,2.0,3.0,71,0.00,,,0.00,WeatherCatV1.10B1784,2013-03-08 03:59:00,
2013-03-07 23:04:00,30.3,21.7,30.35,NE,48,3.0,3.0,70,0.00,,,0.00,WeatherCatV1.10B1784,2013-03-08 04:04:00,
2013-03-07 23:09:00,30.2,21.9,30.36,NE,48,1.0,2.0,71,0.00,,,0.00,WeatherCatV1.10B1784,2013-03-08 04:09:00,
2013-03-07 23:14:00,30.0,21.8,30.36,NE,48,0.0,0.0,71,0.00,,,0.00,WeatherCatV1.10B1784,2013-03-08 04:14:00,
2013-03-07 23:19:00,29.9,21.7,30.35,NE,48,0.0,0.0,71,0.00,,,0.00,WeatherCatV1.10B1784,2013-03-08 04:19:00,
2013-03-07 23:24:00,29.7,21.5,30.35,NE,48,0.0,0.0,71,0.00,,,0.00,WeatherCatV1.10B1784,2013-03-08 04:24:00,
2013-03-07 23:29:00,29.5,21.3,30.36,NE,48,0.0,0.0,71,0.00,,,0.00,WeatherCatV1.10B1784,2013-03-08 04:29:00,
2013-03-07 23:34:00,29.3,21.1,30.35,NE,48,0.0,1.0,71,0.00,,,0.00,WeatherCatV1.10B1784,2013-03-08 04:34:00,
2013-03-07 23:39:00,29.3,21.1,30.35,NE,48,0.0,1.0,71,0.00,,,0.00,WeatherCatV1.10B1784,2013-03-08 04:39:00,
2013-03-07 23:44:00,29.0,21.4,30.36,NE,48,0.0,0.0,73,0.00,,,0.00,WeatherCatV1.10B1784,2013-03-08 04:44:00,
2013-03-07 23:49:00,28.5,21.3,30.36,NE,48,0.0,0.0,74,0.00,,,0.00,WeatherCatV1.10B1784,2013-03-08 04:49:00,
2013-03-07 23:54:00,28.0,21.1,30.36,NE,48,0.0,0.0,75,0.00,,,0.00,WeatherCatV1.10B1784,2013-03-08 04:54:00,
2013-03-07 23:59:00,27.7,21.1,30.36,NE,48,0.0,0.0,76,0.00,,,0.00,WeatherCatV1.10B1784,2013-03-08 04:59:00,